createdAt,value
2023-04-03T00:01:36.278Z,6.89
2023-04-03T00:04:20.525Z,6.88
2023-04-03T00:06:49.128Z,6.87
2023-04-03T00:09:20.352Z,6.87
2023-04-03T00:11:48.407Z,6.88
2023-04-03T00:14:16.512Z,6.89
2023-04-03T00:16:56.019Z,6.90
2023-04-03T00:19:24.091Z,6.89
2023-04-03T00:21:52.151Z,6.90
2023-04-03T00:24:23.291Z,6.90
2023-04-03T00:26:57.883Z,6.91
2023-04-03T00:29:25.929Z,6.91
2023-04-03T00:31:53.964Z,6.90
2023-04-03T00:34:22.942Z,6.90
2023-04-03T00:36:52.706Z,6.89
2023-04-03T00:39:21.361Z,6.88
2023-04-03T00:41:49.842Z,6.87
2023-04-03T00:44:22.256Z,6.87
2023-04-03T00:46:50.539Z,6.86
2023-04-03T00:49:18.652Z,6.84
2023-04-03T00:51:46.767Z,6.83
2023-04-03T00:54:14.828Z,6.82
2023-04-03T00:56:43.245Z,6.81
2023-04-03T00:59:16.176Z,6.80
2023-04-03T01:01:44.438Z,6.80
2023-04-03T01:04:30.138Z,6.80
2023-04-03T01:06:59.344Z,6.80
2023-04-03T01:09:27.728Z,6.79
2023-04-03T01:12:14.185Z,6.78
2023-04-03T01:14:44.984Z,6.77
2023-04-03T01:17:25.914Z,6.77
2023-04-03T01:19:58.800Z,6.78
2023-04-03T01:22:32.225Z,6.77
2023-04-03T01:25:00.633Z,6.78
2023-04-03T01:27:29.507Z,6.78
2023-04-03T01:29:57.567Z,6.77
2023-04-03T01:32:25.928Z,6.78
2023-04-03T01:34:54.372Z,6.77
2023-04-03T01:37:22.509Z,6.77
2023-04-03T01:39:51.702Z,6.78
2023-04-03T01:42:19.787Z,6.77
2023-04-03T01:44:48.824Z,6.77
2023-04-03T01:47:17.287Z,6.75
2023-04-03T01:49:45.530Z,6.75
2023-04-03T01:52:13.734Z,6.74
2023-04-03T01:54:41.852Z,6.75
2023-04-03T01:57:10.026Z,6.74
2023-04-03T01:59:38.732Z,6.75
2023-04-03T02:02:07.008Z,6.75
2023-04-03T02:04:35.503Z,6.75
2023-04-03T02:07:04.402Z,6.74
2023-04-03T02:09:32.463Z,6.74
2023-04-03T02:12:00.722Z,6.74
2023-04-03T02:14:29.025Z,6.74
2023-04-03T02:16:57.330Z,6.74
2023-04-03T02:19:26.107Z,6.74
2023-04-03T02:21:54.511Z,6.75
2023-04-03T02:24:24.246Z,6.75
2023-04-03T02:26:52.375Z,6.76
2023-04-03T02:29:20.988Z,6.76
2023-04-03T02:31:49.542Z,6.75
2023-04-03T02:34:18.036Z,6.74
2023-04-03T02:36:46.461Z,6.74
2023-04-03T02:39:15.078Z,6.74
2023-04-03T02:41:44.132Z,6.73
2023-04-03T02:44:15.689Z,6.74
2023-04-03T02:46:43.965Z,6.75
2023-04-03T02:49:11.983Z,6.75
2023-04-03T02:51:41.176Z,6.74
2023-04-03T02:54:09.393Z,6.75
2023-04-03T02:56:40.421Z,6.75
2023-04-03T02:59:08.621Z,6.77
2023-04-03T03:01:38.778Z,6.77
2023-04-03T03:04:07.280Z,6.77
2023-04-03T03:06:35.466Z,6.79
2023-04-03T03:09:04.626Z,6.80
2023-04-03T03:11:33.082Z,6.79
2023-04-03T03:14:01.357Z,6.78
2023-04-03T03:16:29.729Z,6.76
2023-04-03T03:18:59.057Z,6.75
2023-04-03T03:21:32.676Z,6.75
2023-04-03T03:24:01.127Z,6.74
2023-04-03T03:26:29.447Z,6.74
2023-04-03T03:28:58.335Z,6.76
2023-04-03T03:31:26.370Z,6.77
2023-04-03T03:33:54.727Z,6.78
2023-04-03T03:36:25.076Z,6.80
2023-04-03T03:38:54.104Z,6.82
2023-04-03T03:41:22.597Z,6.82
2023-04-03T03:43:51.415Z,6.82
2023-04-03T03:46:20.158Z,6.83
2023-04-03T03:48:48.313Z,6.83
2023-04-03T03:51:17.743Z,6.84
2023-04-03T03:53:46.806Z,6.85
2023-04-03T03:56:16.885Z,6.87
2023-04-03T03:58:46.313Z,6.86
2023-04-03T04:01:17.930Z,6.85
2023-04-03T04:03:51.428Z,6.84
2023-04-03T04:06:22.600Z,6.84
2023-04-03T04:08:51.917Z,6.84
2023-04-03T04:11:23.089Z,6.84
2023-04-03T04:13:51.549Z,6.83
2023-04-03T04:16:20.836Z,6.83
2023-04-03T04:18:49.617Z,6.83
2023-04-03T04:21:22.227Z,6.84
2023-04-03T04:23:51.991Z,6.83
2023-04-03T04:26:21.481Z,6.84
2023-04-03T04:28:53.480Z,6.83
2023-04-03T04:31:21.994Z,6.83
2023-04-03T04:33:51.105Z,6.84
2023-04-03T04:36:19.908Z,6.85
2023-04-03T04:38:49.176Z,6.86
2023-04-03T04:41:17.375Z,6.87
2023-04-03T04:43:46.410Z,6.88
2023-04-03T04:46:17.259Z,6.90
2023-04-03T04:48:49.585Z,6.91
2023-04-03T04:51:18.580Z,6.92
2023-04-03T04:53:46.847Z,6.93
2023-04-03T04:56:16.646Z,6.94
2023-04-03T04:58:45.182Z,6.96
2023-04-03T05:01:13.490Z,6.95
2023-04-03T05:03:49.197Z,6.97
2023-04-03T05:06:18.234Z,7.00
2023-04-03T05:08:47.141Z,7.02
2023-04-03T05:11:25.228Z,7.04
2023-04-03T05:13:54.280Z,7.05
2023-04-03T05:16:23.043Z,7.04
2023-04-03T05:18:51.867Z,7.04
2023-04-03T05:21:24.390Z,7.03
2023-04-03T05:23:53.019Z,7.03
2023-04-03T05:26:22.107Z,7.02
2023-04-03T05:28:50.874Z,7.02
2023-04-03T05:31:20.498Z,7.02
2023-04-03T05:33:49.472Z,7.03
2023-04-03T05:36:19.486Z,7.04
2023-04-03T05:38:50.442Z,7.04
2023-04-03T05:41:18.919Z,7.05
2023-04-03T05:43:47.724Z,7.06
2023-04-03T05:46:17.005Z,7.08
2023-04-03T05:48:46.398Z,7.10
2023-04-03T05:51:18.356Z,7.12
2023-04-03T05:53:47.907Z,7.15
2023-04-03T05:56:16.630Z,7.17
2023-04-03T05:58:46.089Z,7.19
2023-04-03T06:01:14.525Z,7.21
2023-04-03T06:03:43.924Z,7.24
2023-04-03T06:06:14.001Z,7.29
2023-04-03T06:08:42.303Z,7.32
2023-04-03T06:11:11.269Z,7.35
2023-04-03T06:13:39.455Z,7.39
2023-04-03T06:16:13.179Z,7.42
2023-04-03T06:18:42.484Z,7.45
2023-04-03T06:21:11.270Z,7.47
2023-04-03T06:23:40.018Z,7.49
2023-04-03T06:26:08.160Z,7.51
2023-04-03T06:28:37.195Z,7.53
2023-04-03T06:31:05.434Z,7.55
2023-04-03T06:33:34.893Z,7.57
2023-04-03T06:36:04.927Z,7.60
2023-04-03T06:38:34.490Z,7.62
2023-04-03T06:41:02.540Z,7.64
2023-04-03T06:43:33.926Z,7.67
2023-04-03T06:46:02.941Z,7.67
2023-04-03T06:48:31.688Z,7.69
2023-04-03T06:50:59.905Z,7.70
2023-04-03T06:53:28.667Z,7.72
2023-04-03T06:55:56.705Z,7.73
2023-04-03T06:58:25.220Z,7.74
2023-04-03T07:00:53.451Z,7.74
2023-04-03T07:03:23.131Z,7.74
2023-04-03T07:05:51.820Z,7.75
2023-04-03T07:08:19.957Z,7.75
2023-04-03T07:10:48.790Z,7.76
2023-04-03T07:13:17.250Z,7.77
2023-04-03T07:15:45.297Z,7.79
2023-04-03T07:18:13.349Z,7.82
2023-04-03T07:20:42.603Z,7.83
2023-04-03T07:23:11.595Z,7.87
2023-04-03T07:25:43.921Z,7.91
2023-04-03T07:28:12.875Z,7.96
2023-04-03T07:30:44.425Z,8.01
2023-04-03T07:33:14.232Z,8.06
2023-04-03T07:35:42.476Z,8.10
2023-04-03T07:38:11.158Z,8.14
2023-04-03T07:40:39.371Z,8.18
2023-04-03T07:43:07.577Z,8.21
2023-04-03T07:45:37.012Z,8.25
2023-04-03T07:48:06.586Z,8.31
2023-04-03T07:50:35.007Z,8.33
2023-04-03T07:53:03.927Z,8.33
2023-04-03T07:55:34.455Z,8.36
2023-04-03T07:58:03.033Z,8.39
2023-04-03T08:00:31.637Z,8.44
2023-04-03T08:03:07.184Z,8.47
2023-04-03T08:05:38.433Z,8.49
2023-04-03T08:08:07.365Z,8.51
2023-04-03T08:10:39.630Z,8.54
2023-04-03T08:13:07.753Z,8.55
2023-04-03T08:15:36.288Z,8.57
2023-04-03T08:18:05.522Z,8.60
2023-04-03T08:20:33.617Z,8.62
2023-04-03T08:23:01.707Z,8.62
2023-04-03T08:25:30.970Z,8.64
2023-04-03T08:27:59.076Z,8.66
2023-04-03T08:30:27.202Z,8.68
2023-04-03T08:32:57.129Z,8.71
2023-04-03T08:35:25.476Z,8.72
2023-04-03T08:37:53.490Z,8.74
2023-04-03T08:40:22.467Z,8.76
2023-04-03T08:43:02.591Z,8.79
2023-04-03T08:45:51.867Z,8.82
2023-04-03T08:48:24.685Z,8.88
2023-04-03T08:50:54.413Z,8.94
2023-04-03T08:53:23.441Z,9.00
2023-04-03T08:55:51.919Z,9.05
2023-04-03T08:58:23.960Z,9.11
2023-04-03T09:00:56.977Z,9.17
2023-04-03T09:03:26.649Z,9.23
2023-04-03T09:05:54.856Z,9.29
2023-04-03T09:08:56.838Z,9.40
2023-04-03T09:11:25.829Z,9.50
2023-04-03T09:14:04.319Z,9.58
2023-04-03T09:16:38.973Z,9.67
2023-04-03T09:19:14.565Z,9.75
2023-04-03T09:21:43.943Z,9.80
2023-04-03T09:24:13.811Z,9.84
2023-04-03T09:26:55.114Z,9.91
2023-04-03T09:29:23.769Z,9.95
2023-04-03T09:32:01.156Z,9.97
2023-04-03T09:34:35.396Z,9.99
2023-04-03T09:37:07.472Z,10.02
2023-04-03T09:39:56.864Z,10.03
2023-04-03T09:42:25.344Z,10.04
2023-04-03T09:44:54.624Z,10.06
2023-04-03T09:47:37.781Z,10.07
2023-04-03T09:50:30.225Z,10.09
2023-04-03T09:52:58.463Z,10.12
2023-04-03T09:55:30.966Z,10.14
2023-04-03T09:58:18.324Z,10.17
2023-04-03T10:00:46.317Z,10.19
2023-04-03T10:03:31.759Z,10.21
2023-04-03T10:06:01.363Z,10.22
2023-04-03T10:08:35.758Z,10.20
2023-04-03T10:11:08.768Z,10.17
2023-04-03T10:13:48.730Z,10.15
2023-04-03T10:16:21.461Z,10.14
2023-04-03T10:19:03.432Z,10.14
2023-04-03T10:21:37.964Z,10.14
2023-04-03T10:24:12.321Z,10.13
2023-04-03T10:26:49.320Z,10.11
2023-04-03T10:29:20.426Z,10.06
2023-04-03T10:31:57.744Z,10.03
2023-04-03T10:34:27.240Z,10.00
2023-04-03T10:37:13.925Z,9.96
2023-04-03T10:39:44.989Z,9.91
2023-04-03T10:42:22.052Z,9.87
2023-04-03T10:44:56.675Z,9.84
2023-04-03T10:47:43.268Z,9.82
2023-04-03T10:50:30.701Z,9.81
2023-04-03T10:53:11.261Z,9.80
2023-04-03T10:55:42.753Z,9.77
2023-04-03T10:58:15.693Z,9.75
2023-04-03T11:00:44.803Z,9.71
2023-04-03T11:03:16.087Z,9.68
2023-04-03T11:05:45.609Z,9.68
2023-04-03T11:08:27.945Z,9.70
2023-04-03T11:10:58.419Z,9.73
2023-04-03T11:13:29.724Z,9.76
2023-04-03T11:15:58.502Z,9.78
2023-04-03T11:18:28.188Z,9.84
2023-04-03T11:21:05.745Z,9.88
2023-04-03T11:23:48.878Z,9.90
2023-04-03T11:26:22.850Z,9.92
2023-04-03T11:28:55.247Z,9.96
2023-04-03T11:31:23.573Z,9.99
2023-04-03T11:34:00.791Z,10.02
2023-04-03T11:36:33.785Z,10.02
2023-04-03T11:39:24.425Z,9.99
2023-04-03T11:42:00.296Z,9.94
2023-04-03T11:44:37.837Z,9.89
2023-04-03T11:47:07.082Z,9.87
2023-04-03T11:49:51.547Z,9.84
2023-04-03T11:52:38.416Z,9.82
2023-04-03T11:55:24.752Z,9.78
2023-04-03T11:57:59.162Z,9.76
2023-04-03T12:00:52.441Z,9.74
2023-04-03T12:03:24.320Z,9.70
2023-04-03T12:05:55.860Z,9.69
2023-04-03T12:08:35.280Z,9.69
2023-04-03T12:11:09.667Z,9.67
2023-04-03T12:13:53.508Z,9.66
2023-04-03T12:16:54.986Z,9.61
2023-04-03T12:19:42.645Z,9.56
2023-04-03T12:22:12.792Z,9.50
2023-04-03T12:24:43.640Z,9.42
2023-04-03T12:27:29.868Z,9.32
2023-04-03T12:30:03.049Z,9.22
2023-04-03T12:32:38.369Z,9.10
2023-04-03T12:35:07.493Z,9.01
2023-04-03T12:37:54.642Z,8.96
2023-04-03T12:40:27.008Z,8.89
2023-04-03T12:43:16.049Z,8.81
2023-04-03T12:45:53.735Z,8.74
2023-04-03T12:48:26.375Z,8.70
2023-04-03T12:50:54.415Z,8.67
2023-04-03T12:53:24.320Z,8.63
2023-04-03T12:55:57.362Z,8.62
2023-04-03T12:58:28.426Z,8.60
2023-04-03T13:01:16.137Z,8.58
2023-04-03T13:03:46.931Z,8.52
2023-04-03T13:06:19.963Z,8.45
2023-04-03T13:08:52.073Z,8.39
2023-04-03T13:11:21.422Z,8.31
2023-04-03T13:13:57.629Z,8.26
2023-04-03T13:16:29.611Z,8.24
2023-04-03T13:18:57.917Z,8.21
2023-04-03T13:21:27.102Z,8.18
2023-04-03T13:24:07.160Z,8.14
2023-04-03T13:26:42.678Z,8.11
2023-04-03T13:29:35.879Z,8.06
2023-04-03T13:32:04.894Z,8.00
2023-04-03T13:34:41.671Z,7.96
2023-04-03T13:37:28.422Z,7.91
2023-04-03T13:40:06.092Z,7.85
2023-04-03T13:42:35.633Z,7.81
2023-04-03T13:45:11.382Z,7.78
2023-04-03T13:47:41.316Z,7.72
2023-04-03T13:50:12.403Z,7.67
2023-04-03T13:52:42.762Z,7.59
2023-04-03T13:55:25.727Z,7.54
2023-04-03T13:57:54.801Z,7.47
2023-04-03T14:00:33.899Z,7.39
2023-04-03T14:03:34.081Z,7.34
2023-04-03T14:06:02.799Z,7.31
2023-04-03T14:08:42.205Z,7.27
2023-04-03T14:11:16.449Z,7.22
2023-04-03T14:13:44.837Z,7.14
2023-04-03T14:16:20.375Z,7.06
2023-04-03T14:18:49.905Z,7.02
2023-04-03T14:21:19.609Z,6.99
2023-04-03T14:23:48.116Z,6.93
2023-04-03T14:26:21.577Z,6.86
2023-04-03T14:28:51.209Z,6.82
2023-04-03T14:31:19.608Z,6.79
2023-04-03T14:33:48.969Z,6.77
2023-04-03T14:36:27.362Z,6.78
2023-04-03T14:38:56.026Z,6.75
2023-04-03T14:41:24.842Z,6.72
2023-04-03T14:43:53.246Z,6.67
2023-04-03T14:46:26.566Z,6.59
2023-04-03T14:48:57.592Z,6.52
2023-04-03T14:51:25.800Z,6.46
2023-04-03T14:53:54.804Z,6.43
2023-04-03T14:56:24.556Z,6.38
2023-04-03T14:58:53.441Z,6.36
2023-04-03T15:01:21.647Z,6.32
2023-04-03T15:03:50.750Z,6.27
2023-04-03T15:06:18.929Z,6.20
2023-04-03T15:08:48.037Z,6.15
2023-04-03T15:11:19.456Z,6.13
2023-04-03T15:13:48.457Z,6.15
2023-04-03T15:16:17.682Z,6.16
2023-04-03T15:18:46.199Z,6.15
2023-04-03T15:21:15.379Z,6.16
2023-04-03T15:23:43.962Z,6.16
2023-04-03T15:26:11.954Z,6.16
2023-04-03T15:28:42.014Z,6.11
2023-04-03T15:31:11.947Z,6.04
2023-04-03T15:33:41.636Z,5.97
2023-04-03T15:36:29.147Z,5.92
2023-04-03T15:39:00.211Z,5.87
2023-04-03T15:41:28.385Z,5.82
2023-04-03T15:44:00.641Z,5.77
2023-04-03T15:46:29.487Z,5.72
2023-04-03T15:48:57.810Z,5.65
2023-04-03T15:51:26.015Z,5.60
2023-04-03T15:53:54.690Z,5.58
2023-04-03T15:56:23.212Z,5.56
2023-04-03T15:58:51.397Z,5.57
2023-04-03T16:01:19.826Z,5.56
2023-04-03T16:03:49.070Z,5.54
2023-04-03T16:06:19.976Z,5.53
2023-04-03T16:08:48.518Z,5.54
2023-04-03T16:11:16.600Z,5.56
2023-04-03T16:13:44.638Z,5.56
2023-04-03T16:16:15.327Z,5.56
2023-04-03T16:18:43.596Z,5.54
2023-04-03T16:21:15.004Z,5.50
2023-04-03T16:23:43.355Z,5.48
2023-04-03T16:26:11.500Z,5.47
2023-04-03T16:28:40.888Z,5.43
2023-04-03T16:31:09.008Z,5.37
2023-04-03T16:33:37.899Z,5.34
2023-04-03T16:36:06.340Z,5.31
2023-04-03T16:38:37.211Z,5.28
2023-04-03T16:41:05.770Z,5.24
2023-04-03T16:43:34.040Z,5.20
2023-04-03T16:46:04.856Z,5.17
2023-04-03T16:48:33.080Z,5.14
2023-04-03T16:51:01.327Z,5.12
2023-04-03T16:53:29.655Z,5.10
2023-04-03T16:55:58.635Z,5.08
2023-04-03T16:58:27.469Z,5.08
2023-04-03T17:00:56.501Z,5.09
2023-04-03T17:03:27.319Z,5.10
2023-04-03T17:05:55.645Z,5.10
2023-04-03T17:08:23.692Z,5.09
2023-04-03T17:10:56.937Z,5.09
2023-04-03T17:13:33.261Z,5.10
2023-04-03T17:16:06.029Z,5.08
2023-04-03T17:18:37.293Z,5.06
2023-04-03T17:21:05.692Z,5.06
2023-04-03T17:23:35.616Z,5.05
2023-04-03T17:26:11.325Z,5.04
2023-04-03T17:28:42.731Z,5.02
2023-04-03T17:31:12.526Z,5.03
2023-04-03T17:33:44.151Z,5.04
2023-04-03T17:36:13.845Z,5.01
2023-04-03T17:38:42.335Z,4.99
2023-04-03T17:41:14.862Z,4.98
2023-04-03T17:43:43.024Z,4.96
2023-04-03T17:46:11.622Z,4.93
2023-04-03T17:48:41.632Z,4.93
2023-04-03T17:51:10.872Z,4.93
2023-04-03T17:53:44.661Z,4.92
2023-04-03T17:56:17.465Z,4.93
2023-04-03T17:58:50.737Z,4.95
2023-04-03T18:01:25.077Z,4.94
2023-04-03T18:03:55.805Z,4.94
2023-04-03T18:06:27.697Z,4.94
2023-04-03T18:08:59.025Z,4.95
2023-04-03T18:11:28.221Z,4.95
2023-04-03T18:14:02.467Z,4.97
2023-04-03T18:16:31.765Z,4.99
2023-04-03T18:19:21.302Z,4.98
2023-04-03T18:22:00.522Z,4.97
2023-04-03T18:24:28.781Z,4.96
2023-04-03T18:27:01.606Z,4.92
2023-04-03T18:29:31.084Z,4.89
2023-04-03T18:32:01.938Z,4.86
2023-04-03T18:34:30.972Z,4.83
2023-04-03T18:37:00.260Z,4.84
2023-04-03T18:39:29.621Z,4.86
2023-04-03T18:41:58.343Z,4.86
2023-04-03T18:44:26.384Z,4.87
2023-04-03T18:46:57.010Z,4.87
2023-04-03T18:49:26.294Z,4.87
2023-04-03T18:51:54.783Z,4.87
2023-04-03T18:54:22.854Z,4.86
2023-04-03T18:56:50.916Z,4.82
2023-04-03T18:59:22.082Z,4.80
2023-04-03T19:01:51.426Z,4.79
2023-04-03T19:04:19.550Z,4.79
2023-04-03T19:06:47.654Z,4.77
2023-04-03T19:09:17.736Z,4.78
2023-04-03T19:11:46.311Z,4.80
2023-04-03T19:14:21.662Z,4.82
2023-04-03T19:16:50.011Z,4.84
2023-04-03T19:19:20.729Z,4.87
2023-04-03T19:21:53.155Z,4.89
2023-04-03T19:24:22.336Z,4.89
2023-04-03T19:26:52.924Z,4.87
2023-04-03T19:29:22.078Z,4.85
2023-04-03T19:31:50.784Z,4.81
2023-04-03T19:34:19.082Z,4.78
2023-04-03T19:36:48.173Z,4.76
2023-04-03T19:39:16.467Z,4.72
2023-04-03T19:41:46.329Z,4.68
2023-04-03T19:44:14.440Z,4.69
2023-04-03T19:46:51.429Z,4.68
2023-04-03T19:49:19.887Z,4.64
2023-04-03T19:51:48.989Z,4.62
2023-04-03T19:54:17.539Z,4.61
2023-04-03T19:56:53.976Z,4.60
2023-04-03T19:59:22.267Z,4.58
2023-04-03T20:01:51.313Z,4.54
2023-04-03T20:04:19.504Z,4.51
2023-04-03T20:06:47.680Z,4.49
2023-04-03T20:09:18.010Z,4.45
2023-04-03T20:11:53.818Z,4.42
2023-04-03T20:14:22.876Z,4.39
2023-04-03T20:16:50.984Z,4.37
2023-04-03T20:19:19.613Z,4.37
2023-04-03T20:21:48.089Z,4.37
2023-04-03T20:24:17.936Z,4.35
2023-04-03T20:26:47.388Z,4.32
2023-04-03T20:29:16.678Z,4.30
2023-04-03T20:31:44.932Z,4.30
2023-04-03T20:34:14.002Z,4.30
2023-04-03T20:36:48.247Z,4.30
2023-04-03T20:39:19.523Z,4.31
2023-04-03T20:41:47.802Z,4.32
2023-04-03T20:44:17.804Z,4.32
2023-04-03T20:46:52.878Z,4.31
2023-04-03T20:49:22.064Z,4.32
2023-04-03T20:51:51.329Z,4.31
2023-04-03T20:54:19.873Z,4.30
2023-04-03T20:56:50.124Z,4.27
2023-04-03T20:59:19.523Z,4.25
2023-04-03T21:01:48.068Z,4.23
2023-04-03T21:04:19.348Z,4.25
2023-04-03T21:07:06.974Z,4.24
2023-04-03T21:09:56.690Z,4.27
2023-04-03T21:12:44.307Z,4.26
2023-04-03T21:15:33.682Z,4.26
2023-04-03T21:18:02.549Z,4.26
2023-04-03T21:20:31.361Z,4.26
2023-04-03T21:22:59.428Z,4.25
2023-04-03T21:25:27.751Z,4.24
2023-04-03T21:27:55.873Z,4.23
2023-04-03T21:30:24.006Z,4.23
2023-04-03T21:32:55.771Z,4.25
2023-04-03T21:35:23.835Z,4.22
2023-04-03T21:37:51.937Z,4.20
2023-04-03T21:40:21.839Z,4.19
2023-04-03T21:42:53.867Z,4.18
2023-04-03T21:45:24.424Z,4.18
2023-04-03T21:47:53.954Z,4.18
2023-04-03T21:50:22.042Z,4.17
2023-04-03T21:52:53.001Z,4.15
2023-04-03T21:55:21.437Z,4.14
2023-04-03T21:57:52.492Z,4.14
2023-04-03T22:00:21.798Z,4.13
2023-04-03T22:03:00.526Z,4.10
2023-04-03T22:05:37.403Z,4.07
2023-04-03T22:08:07.339Z,4.05
2023-04-03T22:10:36.107Z,4.03
2023-04-03T22:13:04.382Z,4.02
2023-04-03T22:15:47.450Z,4.02
2023-04-03T22:18:15.704Z,3.99
2023-04-03T22:20:44.013Z,3.99
2023-04-03T22:23:12.959Z,4.00
2023-04-03T22:25:41.620Z,3.99
2023-04-03T22:28:09.678Z,3.99
2023-04-03T22:30:39.886Z,3.98
2023-04-03T22:33:08.958Z,3.98
2023-04-03T22:35:53.294Z,3.98
2023-04-03T22:38:21.536Z,4.00
2023-04-03T22:40:58.161Z,4.01
2023-04-03T22:43:29.280Z,4.02
2023-04-03T22:46:01.400Z,4.04
2023-04-03T22:48:31.249Z,4.03
2023-04-03T22:51:00.222Z,4.03
2023-04-03T22:53:28.578Z,4.03
2023-04-03T22:56:03.193Z,4.00
2023-04-03T22:58:32.941Z,3.94
2023-04-03T23:01:05.049Z,3.90
2023-04-03T23:03:34.382Z,3.89
2023-04-03T23:06:03.719Z,3.87
2023-04-03T23:08:34.625Z,3.84
2023-04-03T23:11:03.527Z,3.81
2023-04-03T23:13:31.609Z,3.81
2023-04-03T23:16:00.311Z,3.81
2023-04-03T23:18:32.752Z,3.81
2023-04-03T23:21:08.634Z,3.79
2023-04-03T23:23:38.112Z,3.79
2023-04-03T23:26:06.206Z,3.78
2023-04-03T23:28:35.977Z,3.76
2023-04-03T23:31:06.852Z,3.74
2023-04-03T23:34:13.240Z,3.72
2023-04-03T23:37:16.935Z,3.70
2023-04-03T23:39:44.870Z,3.69
2023-04-03T23:42:12.803Z,3.67
2023-04-03T23:45:22.348Z,3.65
2023-04-03T23:48:29.258Z,3.62
2023-04-03T23:51:00.447Z,3.61
2023-04-03T23:53:29.483Z,3.59
2023-04-03T23:55:57.877Z,3.56
2023-04-03T23:58:25.960Z,3.52
